sensor_id;sensor_type;location;lat;lon;timestamp;P1;durP1;ratioP1;P2;durP2;ratioP2
5754;SDS011;2902;42.130;24.732;2023-03-14T00:00:07;5.20;;;4.70;;
5754;SDS011;2902;42.130;24.732;2023-03-14T00:02:35;4.93;;;4.50;;
5754;SDS011;2902;42.130;24.732;2023-03-14T00:05:03;9.63;;;5.00;;
5754;SDS011;2902;42.130;24.732;2023-03-14T00:07:32;5.47;;;3.83;;
5754;SDS011;2902;42.130;24.732;2023-03-14T00:10:00;11.77;;;5.23;;
5754;SDS011;2902;42.130;24.732;2023-03-14T00:12:30;8.87;;;5.00;;
5754;SDS011;2902;42.130;24.732;2023-03-14T00:14:57;13.33;;;5.57;;
5754;SDS011;2902;42.130;24.732;2023-03-14T00:17:28;5.97;;;5.30;;
5754;SDS011;2902;42.130;24.732;2023-03-14T00:19:55;6.40;;;5.80;;
5754;SDS011;2902;42.130;24.732;2023-03-14T00:22:22;8.87;;;6.33;;
5754;SDS011;2902;42.130;24.732;2023-03-14T00:24:50;5.93;;;5.30;;
5754;SDS011;2902;42.130;24.732;2023-03-14T00:27:16;7.10;;;5.37;;
5754;SDS011;2902;42.130;24.732;2023-03-14T00:29:44;8.57;;;7.10;;
5754;SDS011;2902;42.130;24.732;2023-03-14T00:32:11;7.23;;;6.53;;
5754;SDS011;2902;42.130;24.732;2023-03-14T00:34:38;6.50;;;6.00;;
5754;SDS011;2902;42.130;24.732;2023-03-14T00:37:05;6.23;;;5.73;;
5754;SDS011;2902;42.130;24.732;2023-03-14T00:39:31;7.93;;;5.77;;
5754;SDS011;2902;42.130;24.732;2023-03-14T00:41:58;6.53;;;5.60;;
5754;SDS011;2902;42.130;24.732;2023-03-14T00:44:25;7.20;;;6.60;;
5754;SDS011;2902;42.130;24.732;2023-03-14T00:46:53;9.43;;;6.30;;
5754;SDS011;2902;42.130;24.732;2023-03-14T00:49:19;7.67;;;5.67;;
5754;SDS011;2902;42.130;24.732;2023-03-14T00:51:46;6.67;;;6.07;;
5754;SDS011;2902;42.130;24.732;2023-03-14T00:54:13;9.17;;;6.43;;
5754;SDS011;2902;42.130;24.732;2023-03-14T00:56:39;5.33;;;5.03;;
5754;SDS011;2902;42.130;24.732;2023-03-14T00:59:06;5.87;;;5.37;;
5754;SDS011;2902;42.130;24.732;2023-03-14T01:01:33;7.37;;;6.30;;
5754;SDS011;2902;42.130;24.732;2023-03-14T01:04:01;6.87;;;6.23;;
5754;SDS011;2902;42.130;24.732;2023-03-14T01:06:28;9.67;;;6.73;;
5754;SDS011;2902;42.130;24.732;2023-03-14T01:08:56;7.77;;;5.90;;
5754;SDS011;2902;42.130;24.732;2023-03-14T01:11:24;8.40;;;6.70;;
5754;SDS011;2902;42.130;24.732;2023-03-14T01:13:52;6.93;;;6.33;;
5754;SDS011;2902;42.130;24.732;2023-03-14T01:16:19;7.83;;;7.00;;
5754;SDS011;2902;42.130;24.732;2023-03-14T01:18:47;11.87;;;7.00;;
5754;SDS011;2902;42.130;24.732;2023-03-14T01:21:17;6.90;;;6.20;;
5754;SDS011;2902;42.130;24.732;2023-03-14T01:23:45;7.53;;;6.67;;
5754;SDS011;2902;42.130;24.732;2023-03-14T01:26:13;7.57;;;6.57;;
5754;SDS011;2902;42.130;24.732;2023-03-14T01:28:41;7.33;;;6.67;;
5754;SDS011;2902;42.130;24.732;2023-03-14T01:31:09;7.30;;;6.60;;
5754;SDS011;2902;42.130;24.732;2023-03-14T01:33:37;7.40;;;6.37;;
5754;SDS011;2902;42.130;24.732;2023-03-14T01:36:05;9.07;;;7.27;;
5754;SDS011;2902;42.130;24.732;2023-03-14T01:38:34;8.03;;;7.20;;
5754;SDS011;2902;42.130;24.732;2023-03-14T01:41:02;8.97;;;7.67;;
5754;SDS011;2902;42.130;24.732;2023-03-14T01:43:30;8.97;;;7.13;;
5754;SDS011;2902;42.130;24.732;2023-03-14T01:46:13;8.93;;;8.13;;
5754;SDS011;2902;42.130;24.732;2023-03-14T01:48:46;10.10;;;8.73;;
5754;SDS011;2902;42.130;24.732;2023-03-14T01:51:18;14.43;;;8.77;;
5754;SDS011;2902;42.130;24.732;2023-03-14T01:53:49;9.17;;;8.13;;
5754;SDS011;2902;42.130;24.732;2023-03-14T01:56:18;11.37;;;8.27;;
5754;SDS011;2902;42.130;24.732;2023-03-14T01:58:46;14.33;;;8.70;;
5754;SDS011;2902;42.130;24.732;2023-03-14T02:01:17;10.20;;;8.63;;
5754;SDS011;2902;42.130;24.732;2023-03-14T02:03:47;13.17;;;9.20;;
5754;SDS011;2902;42.130;24.732;2023-03-14T02:06:17;11.60;;;8.53;;
5754;SDS011;2902;42.130;24.732;2023-03-14T02:08:49;8.73;;;7.83;;
5754;SDS011;2902;42.130;24.732;2023-03-14T02:11:17;8.90;;;7.30;;
5754;SDS011;2902;42.130;24.732;2023-03-14T02:13:44;9.33;;;8.00;;
5754;SDS011;2902;42.130;24.732;2023-03-14T02:16:11;11.37;;;7.40;;
5754;SDS011;2902;42.130;24.732;2023-03-14T02:18:38;10.90;;;7.97;;
5754;SDS011;2902;42.130;24.732;2023-03-14T02:21:08;8.57;;;7.60;;
5754;SDS011;2902;42.130;24.732;2023-03-14T02:23:42;8.73;;;7.93;;
5754;SDS011;2902;42.130;24.732;2023-03-14T02:26:20;7.27;;;6.37;;
5754;SDS011;2902;42.130;24.732;2023-03-14T02:28:51;9.83;;;6.40;;
5754;SDS011;2902;42.130;24.732;2023-03-14T02:31:19;7.40;;;6.60;;
5754;SDS011;2902;42.130;24.732;2023-03-14T02:33:47;7.13;;;5.87;;
5754;SDS011;2902;42.130;24.732;2023-03-14T02:36:14;9.27;;;5.50;;
5754;SDS011;2902;42.130;24.732;2023-03-14T02:38:43;6.63;;;6.00;;
5754;SDS011;2902;42.130;24.732;2023-03-14T02:41:13;6.73;;;6.07;;
5754;SDS011;2902;42.130;24.732;2023-03-14T02:43:40;8.90;;;6.10;;
5754;SDS011;2902;42.130;24.732;2023-03-14T02:46:08;5.80;;;5.40;;
5754;SDS011;2902;42.130;24.732;2023-03-14T02:48:38;7.43;;;5.97;;
5754;SDS011;2902;42.130;24.732;2023-03-14T02:51:07;6.13;;;5.60;;
5754;SDS011;2902;42.130;24.732;2023-03-14T02:53:34;9.60;;;6.17;;
5754;SDS011;2902;42.130;24.732;2023-03-14T02:56:03;6.77;;;6.17;;
5754;SDS011;2902;42.130;24.732;2023-03-14T02:58:30;8.93;;;6.80;;
5754;SDS011;2902;42.130;24.732;2023-03-14T03:00:57;7.00;;;6.33;;
5754;SDS011;2902;42.130;24.732;2023-03-14T03:03:25;6.90;;;6.30;;
5754;SDS011;2902;42.130;24.732;2023-03-14T03:05:53;7.70;;;6.90;;
5754;SDS011;2902;42.130;24.732;2023-03-14T03:08:21;9.03;;;6.40;;
5754;SDS011;2902;42.130;24.732;2023-03-14T03:10:49;7.07;;;6.47;;
5754;SDS011;2902;42.130;24.732;2023-03-14T03:13:16;7.40;;;6.80;;
5754;SDS011;2902;42.130;24.732;2023-03-14T03:15:44;7.63;;;6.93;;
5754;SDS011;2902;42.130;24.732;2023-03-14T03:18:10;8.20;;;7.40;;
5754;SDS011;2902;42.130;24.732;2023-03-14T03:20:38;11.70;;;8.60;;
5754;SDS011;2902;42.130;24.732;2023-03-14T03:23:05;10.60;;;9.00;;
5754;SDS011;2902;42.130;24.732;2023-03-14T03:25:32;13.97;;;8.53;;
5754;SDS011;2902;42.130;24.732;2023-03-14T03:27:59;9.20;;;8.30;;
5754;SDS011;2902;42.130;24.732;2023-03-14T03:30:26;13.47;;;10.20;;
5754;SDS011;2902;42.130;24.732;2023-03-14T03:32:53;9.27;;;8.37;;
5754;SDS011;2902;42.130;24.732;2023-03-14T03:35:19;12.17;;;8.27;;
5754;SDS011;2902;42.130;24.732;2023-03-14T03:37:47;9.00;;;8.20;;
5754;SDS011;2902;42.130;24.732;2023-03-14T03:40:14;9.07;;;7.80;;
5754;SDS011;2902;42.130;24.732;2023-03-14T03:42:41;10.27;;;9.13;;
5754;SDS011;2902;42.130;24.732;2023-03-14T03:45:08;12.37;;;9.53;;
5754;SDS011;2902;42.130;24.732;2023-03-14T03:47:35;12.83;;;9.40;;
5754;SDS011;2902;42.130;24.732;2023-03-14T03:50:02;12.87;;;10.83;;
5754;SDS011;2902;42.130;24.732;2023-03-14T03:52:29;14.10;;;9.63;;
5754;SDS011;2902;42.130;24.732;2023-03-14T03:54:57;11.17;;;9.97;;
5754;SDS011;2902;42.130;24.732;2023-03-14T03:57:24;15.10;;;11.77;;
5754;SDS011;2902;42.130;24.732;2023-03-14T03:59:50;16.17;;;10.67;;
5754;SDS011;2902;42.130;24.732;2023-03-14T04:02:17;13.00;;;11.00;;
5754;SDS011;2902;42.130;24.732;2023-03-14T04:04:44;23.20;;;10.93;;
5754;SDS011;2902;42.130;24.732;2023-03-14T04:07:10;14.80;;;10.70;;
5754;SDS011;2902;42.130;24.732;2023-03-14T04:09:39;13.63;;;9.87;;
5754;SDS011;2902;42.130;24.732;2023-03-14T04:12:07;17.70;;;10.30;;
5754;SDS011;2902;42.130;24.732;2023-03-14T04:14:33;25.07;;;11.47;;
5754;SDS011;2902;42.130;24.732;2023-03-14T04:17:00;14.87;;;10.30;;
5754;SDS011;2902;42.130;24.732;2023-03-14T04:19:27;22.17;;;11.17;;
5754;SDS011;2902;42.130;24.732;2023-03-14T04:21:53;14.17;;;10.13;;
5754;SDS011;2902;42.130;24.732;2023-03-14T04:24:20;17.23;;;9.00;;
5754;SDS011;2902;42.130;24.732;2023-03-14T04:26:47;10.00;;;9.10;;
5754;SDS011;2902;42.130;24.732;2023-03-14T04:29:15;22.23;;;10.03;;
5754;SDS011;2902;42.130;24.732;2023-03-14T04:31:42;15.53;;;10.07;;
5754;SDS011;2902;42.130;24.732;2023-03-14T04:34:08;19.97;;;10.60;;
5754;SDS011;2902;42.130;24.732;2023-03-14T04:36:35;21.37;;;10.67;;
5754;SDS011;2902;42.130;24.732;2023-03-14T04:39:02;21.23;;;11.03;;
5754;SDS011;2902;42.130;24.732;2023-03-14T04:41:29;26.40;;;10.70;;
5754;SDS011;2902;42.130;24.732;2023-03-14T04:43:56;28.30;;;12.37;;
5754;SDS011;2902;42.130;24.732;2023-03-14T04:46:24;21.93;;;10.93;;
5754;SDS011;2902;42.130;24.732;2023-03-14T04:48:51;25.23;;;10.87;;
5754;SDS011;2902;42.130;24.732;2023-03-14T04:51:17;18.63;;;11.20;;
5754;SDS011;2902;42.130;24.732;2023-03-14T04:53:44;37.50;;;11.83;;
5754;SDS011;2902;42.130;24.732;2023-03-14T04:56:11;19.73;;;10.93;;
5754;SDS011;2902;42.130;24.732;2023-03-14T04:58:38;21.43;;;12.57;;
5754;SDS011;2902;42.130;24.732;2023-03-14T05:01:05;32.73;;;11.83;;
5754;SDS011;2902;42.130;24.732;2023-03-14T05:03:34;29.77;;;11.37;;
5754;SDS011;2902;42.130;24.732;2023-03-14T05:06:03;45.93;;;13.43;;
5754;SDS011;2902;42.130;24.732;2023-03-14T05:08:30;28.50;;;13.60;;
5754;SDS011;2902;42.130;24.732;2023-03-14T05:10:57;35.27;;;12.33;;
5754;SDS011;2902;42.130;24.732;2023-03-14T05:13:24;35.17;;;12.47;;
5754;SDS011;2902;42.130;24.732;2023-03-14T05:15:51;34.10;;;14.57;;
5754;SDS011;2902;42.130;24.732;2023-03-14T05:18:18;21.67;;;11.57;;
5754;SDS011;2902;42.130;24.732;2023-03-14T05:20:46;20.27;;;11.07;;
5754;SDS011;2902;42.130;24.732;2023-03-14T05:23:16;11.37;;;8.87;;
5754;SDS011;2902;42.130;24.732;2023-03-14T05:25:43;16.77;;;10.47;;
5754;SDS011;2902;42.130;24.732;2023-03-14T05:28:10;12.53;;;11.20;;
5754;SDS011;2902;42.130;24.732;2023-03-14T05:30:37;25.23;;;11.27;;
5754;SDS011;2902;42.130;24.732;2023-03-14T05:33:03;28.57;;;13.23;;
5754;SDS011;2902;42.130;24.732;2023-03-14T05:35:30;24.37;;;12.27;;
5754;SDS011;2902;42.130;24.732;2023-03-14T05:37:58;20.10;;;12.83;;
5754;SDS011;2902;42.130;24.732;2023-03-14T05:40:25;23.00;;;12.60;;
5754;SDS011;2902;42.130;24.732;2023-03-14T05:42:52;17.30;;;11.10;;
5754;SDS011;2902;42.130;24.732;2023-03-14T05:45:19;14.63;;;11.20;;
5754;SDS011;2902;42.130;24.732;2023-03-14T05:47:45;15.73;;;11.00;;
5754;SDS011;2902;42.130;24.732;2023-03-14T05:50:12;22.37;;;11.57;;
5754;SDS011;2902;42.130;24.732;2023-03-14T05:52:39;13.77;;;11.53;;
5754;SDS011;2902;42.130;24.732;2023-03-14T05:55:07;12.97;;;11.57;;
5754;SDS011;2902;42.130;24.732;2023-03-14T05:57:34;15.97;;;11.33;;
5754;SDS011;2902;42.130;24.732;2023-03-14T06:00:01;21.97;;;12.33;;
5754;SDS011;2902;42.130;24.732;2023-03-14T06:02:28;22.90;;;11.80;;
5754;SDS011;2902;42.130;24.732;2023-03-14T06:04:55;24.73;;;12.07;;
5754;SDS011;2902;42.130;24.732;2023-03-14T06:07:22;21.77;;;12.33;;
5754;SDS011;2902;42.130;24.732;2023-03-14T06:09:49;13.57;;;12.03;;
5754;SDS011;2902;42.130;24.732;2023-03-14T06:12:17;20.53;;;12.53;;
5754;SDS011;2902;42.130;24.732;2023-03-14T06:14:44;21.30;;;13.13;;
5754;SDS011;2902;42.130;24.732;2023-03-14T06:17:10;23.70;;;12.63;;
5754;SDS011;2902;42.130;24.732;2023-03-14T06:19:37;27.23;;;12.60;;
5754;SDS011;2902;42.130;24.732;2023-03-14T06:22:04;23.13;;;12.87;;
5754;SDS011;2902;42.130;24.732;2023-03-14T06:24:30;27.20;;;13.27;;
5754;SDS011;2902;42.130;24.732;2023-03-14T06:26:57;46.83;;;15.13;;
5754;SDS011;2902;42.130;24.732;2023-03-14T06:29:25;25.03;;;13.10;;
5754;SDS011;2902;42.130;24.732;2023-03-14T06:31:52;17.83;;;12.83;;
5754;SDS011;2902;42.130;24.732;2023-03-14T06:34:19;24.20;;;13.37;;
5754;SDS011;2902;42.130;24.732;2023-03-14T06:36:45;21.60;;;13.33;;
5754;SDS011;2902;42.130;24.732;2023-03-14T06:39:12;20.40;;;13.23;;
5754;SDS011;2902;42.130;24.732;2023-03-14T06:41:39;17.17;;;12.30;;
5754;SDS011;2902;42.130;24.732;2023-03-14T06:44:06;16.90;;;11.83;;
5754;SDS011;2902;42.130;24.732;2023-03-14T06:46:34;18.87;;;12.53;;
5754;SDS011;2902;42.130;24.732;2023-03-14T06:49:00;26.97;;;12.63;;
5754;SDS011;2902;42.130;24.732;2023-03-14T06:51:27;18.73;;;12.70;;
5754;SDS011;2902;42.130;24.732;2023-03-14T06:53:54;21.03;;;12.37;;
5754;SDS011;2902;42.130;24.732;2023-03-14T06:56:21;16.67;;;12.80;;
5754;SDS011;2902;42.130;24.732;2023-03-14T06:58:48;28.00;;;15.07;;
5754;SDS011;2902;42.130;24.732;2023-03-14T07:01:17;19.53;;;12.60;;
5754;SDS011;2902;42.130;24.732;2023-03-14T07:03:49;45.07;;;15.57;;
5754;SDS011;2902;42.130;24.732;2023-03-14T07:06:16;28.67;;;16.07;;
5754;SDS011;2902;42.130;24.732;2023-03-14T07:08:42;25.43;;;15.87;;
5754;SDS011;2902;42.130;24.732;2023-03-14T07:11:09;42.30;;;15.97;;
5754;SDS011;2902;42.130;24.732;2023-03-14T07:13:36;26.90;;;14.97;;
5754;SDS011;2902;42.130;24.732;2023-03-14T07:16:03;23.50;;;13.43;;
5754;SDS011;2902;42.130;24.732;2023-03-14T07:18:30;25.70;;;13.27;;
5754;SDS011;2902;42.130;24.732;2023-03-14T07:20:58;25.97;;;14.70;;
5754;SDS011;2902;42.130;24.732;2023-03-14T07:23:25;22.43;;;13.90;;
5754;SDS011;2902;42.130;24.732;2023-03-14T07:25:52;26.83;;;13.60;;
5754;SDS011;2902;42.130;24.732;2023-03-14T07:28:18;23.13;;;12.70;;
5754;SDS011;2902;42.130;24.732;2023-03-14T07:30:45;22.27;;;13.80;;
5754;SDS011;2902;42.130;24.732;2023-03-14T07:33:13;20.90;;;11.83;;
5754;SDS011;2902;42.130;24.732;2023-03-14T07:35:39;18.63;;;13.30;;
5754;SDS011;2902;42.130;24.732;2023-03-14T07:38:08;19.63;;;10.90;;
5754;SDS011;2902;42.130;24.732;2023-03-14T07:40:34;24.47;;;11.47;;
5754;SDS011;2902;42.130;24.732;2023-03-14T07:43:01;54.73;;;14.43;;
5754;SDS011;2902;42.130;24.732;2023-03-14T07:45:28;20.43;;;12.37;;
5754;SDS011;2902;42.130;24.732;2023-03-14T07:47:54;12.03;;;10.87;;
5754;SDS011;2902;42.130;24.732;2023-03-14T07:50:22;11.60;;;8.53;;
5754;SDS011;2902;42.130;24.732;2023-03-14T07:52:49;19.40;;;8.90;;
5754;SDS011;2902;42.130;24.732;2023-03-14T07:55:17;10.87;;;9.50;;
5754;SDS011;2902;42.130;24.732;2023-03-14T07:57:44;30.30;;;10.60;;
5754;SDS011;2902;42.130;24.732;2023-03-14T08:00:11;15.87;;;10.23;;
5754;SDS011;2902;42.130;24.732;2023-03-14T08:02:39;23.10;;;10.87;;
5754;SDS011;2902;42.130;24.732;2023-03-14T08:05:06;22.10;;;10.93;;
5754;SDS011;2902;42.130;24.732;2023-03-14T08:07:34;26.07;;;11.43;;
5754;SDS011;2902;42.130;24.732;2023-03-14T08:10:03;14.97;;;10.80;;
5754;SDS011;2902;42.130;24.732;2023-03-14T08:12:31;14.83;;;10.93;;
5754;SDS011;2902;42.130;24.732;2023-03-14T08:14:58;14.17;;;10.40;;
5754;SDS011;2902;42.130;24.732;2023-03-14T08:17:25;19.00;;;10.23;;
5754;SDS011;2902;42.130;24.732;2023-03-14T08:19:52;16.93;;;10.73;;
5754;SDS011;2902;42.130;24.732;2023-03-14T08:22:18;14.37;;;9.93;;
5754;SDS011;2902;42.130;24.732;2023-03-14T08:24:45;24.60;;;10.90;;
5754;SDS011;2902;42.130;24.732;2023-03-14T08:27:11;15.87;;;10.23;;
5754;SDS011;2902;42.130;24.732;2023-03-14T08:29:40;22.03;;;10.27;;
5754;SDS011;2902;42.130;24.732;2023-03-14T08:32:07;19.43;;;9.73;;
5754;SDS011;2902;42.130;24.732;2023-03-14T08:34:34;10.40;;;9.53;;
5754;SDS011;2902;42.130;24.732;2023-03-14T08:37:01;12.10;;;10.10;;
5754;SDS011;2902;42.130;24.732;2023-03-14T08:39:27;21.50;;;10.87;;
5754;SDS011;2902;42.130;24.732;2023-03-14T08:41:54;18.33;;;9.93;;
5754;SDS011;2902;42.130;24.732;2023-03-14T08:44:21;23.50;;;10.23;;
5754;SDS011;2902;42.130;24.732;2023-03-14T08:46:49;196.83;;;23.27;;
5754;SDS011;2902;42.130;24.732;2023-03-14T08:49:15;14.63;;;9.50;;
5754;SDS011;2902;42.130;24.732;2023-03-14T08:51:42;10.33;;;9.13;;
5754;SDS011;2902;42.130;24.732;2023-03-14T08:54:09;12.53;;;9.43;;
5754;SDS011;2902;42.130;24.732;2023-03-14T08:56:36;11.43;;;8.73;;
5754;SDS011;2902;42.130;24.732;2023-03-14T08:59:03;9.83;;;8.73;;
5754;SDS011;2902;42.130;24.732;2023-03-14T09:01:30;11.20;;;7.97;;
5754;SDS011;2902;42.130;24.732;2023-03-14T09:03:59;8.20;;;7.50;;
5754;SDS011;2902;42.130;24.732;2023-03-14T09:06:25;15.60;;;8.03;;
5754;SDS011;2902;42.130;24.732;2023-03-14T09:08:52;19.97;;;8.30;;
5754;SDS011;2902;42.130;24.732;2023-03-14T09:11:19;12.60;;;7.57;;
5754;SDS011;2902;42.130;24.732;2023-03-14T09:13:45;10.53;;;6.57;;
5754;SDS011;2902;42.130;24.732;2023-03-14T09:16:13;8.30;;;7.50;;
5754;SDS011;2902;42.130;24.732;2023-03-14T09:18:40;9.63;;;7.77;;
5754;SDS011;2902;42.130;24.732;2023-03-14T09:21:08;34.27;;;10.13;;
5754;SDS011;2902;42.130;24.732;2023-03-14T09:23:35;8.37;;;7.00;;
5754;SDS011;2902;42.130;24.732;2023-03-14T09:26:02;8.97;;;5.80;;
5754;SDS011;2902;42.130;24.732;2023-03-14T09:28:28;12.37;;;7.10;;
5754;SDS011;2902;42.130;24.732;2023-03-14T09:30:55;10.63;;;6.90;;
5754;SDS011;2902;42.130;24.732;2023-03-14T09:33:23;6.80;;;6.23;;
5754;SDS011;2902;42.130;24.732;2023-03-14T09:35:50;6.60;;;5.97;;
5754;SDS011;2902;42.130;24.732;2023-03-14T09:38:18;6.80;;;5.67;;
5754;SDS011;2902;42.130;24.732;2023-03-14T09:40:45;7.33;;;5.87;;
5754;SDS011;2902;42.130;24.732;2023-03-14T09:43:13;7.70;;;5.93;;
5754;SDS011;2902;42.130;24.732;2023-03-14T09:45:41;9.30;;;6.20;;
5754;SDS011;2902;42.130;24.732;2023-03-14T09:48:14;18.17;;;6.00;;
5754;SDS011;2902;42.130;24.732;2023-03-14T09:50:43;22.40;;;6.63;;
5754;SDS011;2902;42.130;24.732;2023-03-14T09:53:12;7.70;;;6.50;;
5754;SDS011;2902;42.130;24.732;2023-03-14T09:55:44;6.10;;;5.60;;
5754;SDS011;2902;42.130;24.732;2023-03-14T09:58:12;7.43;;;6.13;;
5754;SDS011;2902;42.130;24.732;2023-03-14T10:00:42;6.93;;;6.20;;
5754;SDS011;2902;42.130;24.732;2023-03-14T10:03:17;23.70;;;6.67;;
5754;SDS011;2902;42.130;24.732;2023-03-14T10:05:48;5.63;;;5.20;;
5754;SDS011;2902;42.130;24.732;2023-03-14T10:08:15;11.23;;;5.20;;
5754;SDS011;2902;42.130;24.732;2023-03-14T10:10:43;7.27;;;5.50;;
5754;SDS011;2902;42.130;24.732;2023-03-14T10:13:14;6.17;;;5.67;;
5754;SDS011;2902;42.130;24.732;2023-03-14T10:15:46;5.67;;;5.27;;
5754;SDS011;2902;42.130;24.732;2023-03-14T10:18:15;8.40;;;5.70;;
5754;SDS011;2902;42.130;24.732;2023-03-14T10:20:42;8.50;;;5.77;;
5754;SDS011;2902;42.130;24.732;2023-03-14T10:23:23;7.40;;;5.80;;
5754;SDS011;2902;42.130;24.732;2023-03-14T10:26:03;6.30;;;5.70;;
5754;SDS011;2902;42.130;24.732;2023-03-14T10:28:33;5.40;;;4.90;;
5754;SDS011;2902;42.130;24.732;2023-03-14T10:31:03;6.00;;;5.10;;
5754;SDS011;2902;42.130;24.732;2023-03-14T10:33:31;5.57;;;4.90;;
5754;SDS011;2902;42.130;24.732;2023-03-14T10:36:00;6.87;;;5.50;;
5754;SDS011;2902;42.130;24.732;2023-03-14T10:38:29;10.20;;;5.40;;
5754;SDS011;2902;42.130;24.732;2023-03-14T10:40:56;5.67;;;5.13;;
5754;SDS011;2902;42.130;24.732;2023-03-14T10:43:27;10.33;;;5.50;;
5754;SDS011;2902;42.130;24.732;2023-03-14T10:45:58;7.77;;;4.93;;
5754;SDS011;2902;42.130;24.732;2023-03-14T10:48:31;7.43;;;5.30;;
5754;SDS011;2902;42.130;24.732;2023-03-14T10:51:03;4.73;;;4.33;;
5754;SDS011;2902;42.130;24.732;2023-03-14T10:53:38;5.07;;;4.73;;
5754;SDS011;2902;42.130;24.732;2023-03-14T10:56:07;6.03;;;4.77;;
5754;SDS011;2902;42.130;24.732;2023-03-14T10:58:41;5.30;;;4.80;;
5754;SDS011;2902;42.130;24.732;2023-03-14T11:01:16;6.63;;;5.23;;
5754;SDS011;2902;42.130;24.732;2023-03-14T11:03:53;5.90;;;5.50;;
5754;SDS011;2902;42.130;24.732;2023-03-14T11:06:24;5.10;;;4.60;;
5754;SDS011;2902;42.130;24.732;2023-03-14T11:08:57;12.80;;;5.17;;
5754;SDS011;2902;42.130;24.732;2023-03-14T11:11:33;5.57;;;5.23;;
5754;SDS011;2902;42.130;24.732;2023-03-14T11:14:08;5.23;;;4.90;;
5754;SDS011;2902;42.130;24.732;2023-03-14T11:16:47;6.03;;;4.43;;
5754;SDS011;2902;42.130;24.732;2023-03-14T11:19:29;5.27;;;4.87;;
5754;SDS011;2902;42.130;24.732;2023-03-14T11:22:04;5.17;;;4.87;;
5754;SDS011;2902;42.130;24.732;2023-03-14T11:24:42;6.03;;;5.03;;
5754;SDS011;2902;42.130;24.732;2023-03-14T11:27:17;8.43;;;5.20;;
5754;SDS011;2902;42.130;24.732;2023-03-14T11:29:52;6.50;;;5.20;;
5754;SDS011;2902;42.130;24.732;2023-03-14T11:32:24;4.47;;;4.17;;
5754;SDS011;2902;42.130;24.732;2023-03-14T11:34:59;3.50;;;3.27;;
5754;SDS011;2902;42.130;24.732;2023-03-14T11:37:32;3.63;;;3.40;;
5754;SDS011;2902;42.130;24.732;2023-03-14T11:40:05;3.97;;;3.67;;
5754;SDS011;2902;42.130;24.732;2023-03-14T11:42:39;68.60;;;9.30;;
5754;SDS011;2902;42.130;24.732;2023-03-14T11:45:14;4.47;;;3.80;;
5754;SDS011;2902;42.130;24.732;2023-03-14T11:47:45;7.57;;;3.63;;
5754;SDS011;2902;42.130;24.732;2023-03-14T11:50:21;3.80;;;3.50;;
5754;SDS011;2902;42.130;24.732;2023-03-14T11:52:51;4.20;;;3.90;;
5754;SDS011;2902;42.130;24.732;2023-03-14T11:55:24;7.03;;;3.90;;
5754;SDS011;2902;42.130;24.732;2023-03-14T11:57:55;3.90;;;3.60;;
5754;SDS011;2902;42.130;24.732;2023-03-14T12:00:27;6.63;;;3.50;;
5754;SDS011;2902;42.130;24.732;2023-03-14T12:02:56;4.87;;;4.47;;
5754;SDS011;2902;42.130;24.732;2023-03-14T12:05:31;4.40;;;3.27;;
5754;SDS011;2902;42.130;24.732;2023-03-14T12:11:17;11.63;;;3.87;;
5754;SDS011;2902;42.130;24.732;2023-03-14T12:13:48;3.90;;;3.70;;
5754;SDS011;2902;42.130;24.732;2023-03-14T12:16:30;4.20;;;3.80;;
5754;SDS011;2902;42.130;24.732;2023-03-14T12:22:16;4.70;;;4.30;;
5754;SDS011;2902;42.130;24.732;2023-03-14T12:24:54;6.33;;;4.50;;
5754;SDS011;2902;42.130;24.732;2023-03-14T12:30:15;4.87;;;3.90;;
5754;SDS011;2902;42.130;24.732;2023-03-14T12:35:58;6.40;;;4.17;;
5754;SDS011;2902;42.130;24.732;2023-03-14T12:38:29;4.40;;;4.00;;
5754;SDS011;2902;42.130;24.732;2023-03-14T12:41:12;6.97;;;3.50;;
5754;SDS011;2902;42.130;24.732;2023-03-14T12:43:40;9.10;;;4.90;;
5754;SDS011;2902;42.130;24.732;2023-03-14T12:46:15;4.53;;;4.13;;
5754;SDS011;2902;42.130;24.732;2023-03-14T12:48:54;6.60;;;4.17;;
5754;SDS011;2902;42.130;24.732;2023-03-14T12:51:33;6.47;;;4.13;;
5754;SDS011;2902;42.130;24.732;2023-03-14T12:57:03;6.80;;;3.80;;
5754;SDS011;2902;42.130;24.732;2023-03-14T12:59:36;4.50;;;4.17;;
5754;SDS011;2902;42.130;24.732;2023-03-14T13:02:20;4.67;;;4.27;;
5754;SDS011;2902;42.130;24.732;2023-03-14T13:04:50;4.17;;;3.80;;
5754;SDS011;2902;42.130;24.732;2023-03-14T13:07:32;4.43;;;3.67;;
5754;SDS011;2902;42.130;24.732;2023-03-14T13:10:01;6.57;;;4.13;;
5754;SDS011;2902;42.130;24.732;2023-03-14T13:12:46;3.67;;;3.37;;
5754;SDS011;2902;42.130;24.732;2023-03-14T13:15:19;3.83;;;3.47;;
5754;SDS011;2902;42.130;24.732;2023-03-14T13:17:50;3.93;;;3.63;;
5754;SDS011;2902;42.130;24.732;2023-03-14T13:20:21;4.20;;;3.83;;
5754;SDS011;2902;42.130;24.732;2023-03-14T13:22:54;3.90;;;3.70;;
5754;SDS011;2902;42.130;24.732;2023-03-14T13:25:21;4.10;;;3.50;;
5754;SDS011;2902;42.130;24.732;2023-03-14T13:27:48;4.63;;;4.20;;
5754;SDS011;2902;42.130;24.732;2023-03-14T13:30:16;4.67;;;4.27;;
5754;SDS011;2902;42.130;24.732;2023-03-14T13:32:46;4.63;;;4.23;;
5754;SDS011;2902;42.130;24.732;2023-03-14T13:35:15;4.03;;;3.73;;
5754;SDS011;2902;42.130;24.732;2023-03-14T13:37:46;6.57;;;3.40;;
5754;SDS011;2902;42.130;24.732;2023-03-14T13:40:23;6.23;;;4.80;;
5754;SDS011;2902;42.130;24.732;2023-03-14T13:42:59;5.13;;;4.60;;
5754;SDS011;2902;42.130;24.732;2023-03-14T13:45:31;4.47;;;4.17;;
5754;SDS011;2902;42.130;24.732;2023-03-14T13:48:09;4.50;;;3.90;;
5754;SDS011;2902;42.130;24.732;2023-03-14T13:50:43;4.00;;;3.80;;
5754;SDS011;2902;42.130;24.732;2023-03-14T13:53:12;5.73;;;4.30;;
5754;SDS011;2902;42.130;24.732;2023-03-14T13:55:40;11.43;;;5.27;;
5754;SDS011;2902;42.130;24.732;2023-03-14T13:58:10;5.93;;;3.63;;
5754;SDS011;2902;42.130;24.732;2023-03-14T14:00:45;8.73;;;3.83;;
5754;SDS011;2902;42.130;24.732;2023-03-14T14:03:21;5.00;;;4.50;;
5754;SDS011;2902;42.130;24.732;2023-03-14T14:05:48;6.23;;;3.73;;
5754;SDS011;2902;42.130;24.732;2023-03-14T14:08:15;4.10;;;3.67;;
5754;SDS011;2902;42.130;24.732;2023-03-14T14:10:43;4.47;;;3.77;;
5754;SDS011;2902;42.130;24.732;2023-03-14T14:13:14;3.90;;;3.60;;
5754;SDS011;2902;42.130;24.732;2023-03-14T14:15:45;4.93;;;3.60;;
5754;SDS011;2902;42.130;24.732;2023-03-14T14:18:14;6.03;;;4.13;;
5754;SDS011;2902;42.130;24.732;2023-03-14T14:20:46;5.33;;;4.23;;
5754;SDS011;2902;42.130;24.732;2023-03-14T14:23:15;4.10;;;3.70;;
5754;SDS011;2902;42.130;24.732;2023-03-14T14:25:45;3.90;;;3.50;;
5754;SDS011;2902;42.130;24.732;2023-03-14T14:28:15;3.70;;;3.43;;
5754;SDS011;2902;42.130;24.732;2023-03-14T14:30:47;3.40;;;3.10;;
5754;SDS011;2902;42.130;24.732;2023-03-14T14:33:26;3.73;;;3.43;;
5754;SDS011;2902;42.130;24.732;2023-03-14T14:35:54;3.67;;;3.37;;
5754;SDS011;2902;42.130;24.732;2023-03-14T14:38:23;5.30;;;3.30;;
5754;SDS011;2902;42.130;24.732;2023-03-14T14:40:52;3.90;;;3.47;;
5754;SDS011;2902;42.130;24.732;2023-03-14T14:43:26;6.80;;;3.67;;
5754;SDS011;2902;42.130;24.732;2023-03-14T14:45:54;5.13;;;3.73;;
5754;SDS011;2902;42.130;24.732;2023-03-14T14:48:23;9.47;;;3.97;;
5754;SDS011;2902;42.130;24.732;2023-03-14T14:50:58;3.90;;;3.50;;
5754;SDS011;2902;42.130;24.732;2023-03-14T14:53:28;3.43;;;3.13;;
5754;SDS011;2902;42.130;24.732;2023-03-14T14:55:58;3.83;;;3.63;;
5754;SDS011;2902;42.130;24.732;2023-03-14T14:58:26;4.50;;;3.80;;
5754;SDS011;2902;42.130;24.732;2023-03-14T15:00:56;5.27;;;4.00;;
5754;SDS011;2902;42.130;24.732;2023-03-14T15:03:28;4.50;;;4.20;;
5754;SDS011;2902;42.130;24.732;2023-03-14T15:05:57;4.03;;;3.70;;
5754;SDS011;2902;42.130;24.732;2023-03-14T15:08:24;4.53;;;4.13;;
5754;SDS011;2902;42.130;24.732;2023-03-14T15:10:52;7.17;;;3.97;;
5754;SDS011;2902;42.130;24.732;2023-03-14T15:13:21;4.67;;;4.37;;
5754;SDS011;2902;42.130;24.732;2023-03-14T15:15:48;7.30;;;4.50;;